»·PEaware :: AAL542 KDEN-KABQ

AAL542 :: KDEN-KABQ

FLIGHT INFORMATION

Flight Status: Arrived
Operator:
American Airlines
More flights by this operator :: More flights under this callsign
Pilot: Anonymous 17611 (17611)
Aircraft: BOEING 757-200
(B752)
More flights by this aircraft type
Origin: KDEN Denver Intl
United States
Destination: KABQ Albuquerque Intl Sunport
United States
More flights between these airports :: More routes between these airports
Route: SPAZZ3 ZAPAA DATME SNDIA3
File this flight plan on PilotEdge
Remarks:
Altitude:
(Current/Filed)
32,000ft
Speed:
(Current/Filed)
456kts
Departed: 02-May-18 04:25 PM
Arrived: 02-May-18 05:26 PM
Distance/Time
Traveled:
303nm/1:01
Distance/Time
To Go:
Arrived

Flight Plot

Page will automatically refresh every two minutes.


Map Options




Map Legend


Flown Route
Filed Route
Departure Airport
Arrival Airport
Navaid (VOR, NDB)
Fix

Horizontal Profiles

Position Reports

Time Latitude Longitude Heading Altitude Ground
Speed
02-May-18 15:57 39.859337 -104.677311 179 5446ft 0kts
02-May-18 15:58 39.859337 -104.677311 179 5446ft 0kts
02-May-18 15:59 39.859337 -104.677311 179 5446ft 0kts
02-May-18 16:00 39.859337 -104.677311 179 5446ft 0kts
02-May-18 16:01 39.859337 -104.677311 179 5446ft 0kts
02-May-18 16:02 39.859337 -104.677311 179 5446ft 0kts
02-May-18 16:03 39.859337 -104.677311 179 5446ft 0kts
02-May-18 16:04 39.859337 -104.677311 179 5445ft 0kts
02-May-18 16:05 39.859337 -104.677311 179 5445ft 0kts
02-May-18 16:06 39.859337 -104.677311 179 5445ft 0kts
02-May-18 16:07 39.859337 -104.677311 179 5445ft 0kts
02-May-18 16:08 39.859337 -104.677311 179 5445ft 0kts
02-May-18 16:09 39.859337 -104.677311 179 5445ft 0kts
02-May-18 16:10 39.859337 -104.677311 179 5445ft 0kts
02-May-18 16:11 39.859337 -104.677311 179 5445ft 0kts
02-May-18 16:12 39.859337 -104.677311 179 5445ft 0kts
02-May-18 16:13 39.859337 -104.677311 179 5445ft 0kts
02-May-18 16:14 39.859337 -104.677311 179 5445ft 0kts
02-May-18 16:15 39.859531 -104.677313 181 5446ft 2kts
02-May-18 16:16 39.859992 -104.676894 253 5446ft 2kts
02-May-18 16:17 39.860010 -104.676626 272 5445ft 0kts
02-May-18 16:18 39.860010 -104.676630 272 5445ft 0kts
02-May-18 16:19 39.860662 -104.680129 266 5446ft 0kts
02-May-18 16:20 39.860652 -104.680501 267 5446ft 7kts
02-May-18 16:21 39.860312 -104.686356 271 5445ft 27kts
02-May-18 16:22 39.858888 -104.694258 179 5446ft 23kts
02-May-18 16:22 39.852549 -104.694320 187 5445ft 16kts
02-May-18 16:23 39.852025 -104.694906 267 5446ft 0kts
02-May-18 16:24 39.858078 -104.696357 0 5446ft 92kts
02-May-18 16:25 39.899910 -104.710588 307 6867ft 215kts
02-May-18 16:26 39.870782 -104.785045 218 9011ft 282kts
02-May-18 16:27 39.818721 -104.860715 228 10019ft 297kts
02-May-18 16:29 39.747794 -104.923648 189 10022ft 287kts
02-May-18 16:30 39.674987 -104.920480 169 10173ft 293kts
02-May-18 16:31 39.592509 -104.885779 151 12823ft 338kts
02-May-18 16:31 39.523956 -104.838440 150 15816ft 341kts
02-May-18 16:32 39.437060 -104.788715 157 18991ft 346kts
02-May-18 16:33 39.344267 -104.758883 175 21883ft 352kts
02-May-18 16:34 39.247474 -104.751558 176 24445ft 358kts
02-May-18 16:35 39.151356 -104.745084 178 26658ft 364kts
02-May-18 16:36 39.050138 -104.743223 190 28834ft 366kts
02-May-18 16:37 38.960158 -104.791819 205 31830ft 342kts
02-May-18 16:38 38.878254 -104.844486 206 31959ft 331kts
02-May-18 16:39 38.795104 -104.894764 206 31932ft 332kts
02-May-18 16:40 38.712656 -104.948743 208 31909ft 336kts
02-May-18 16:41 38.630824 -105.006941 208 31902ft 338kts
02-May-18 16:42 38.546962 -105.065224 207 31903ft 359kts
02-May-18 16:43 38.457506 -105.126940 207 31898ft 368kts
02-May-18 16:44 38.367352 -105.187799 206 31897ft 368kts
02-May-18 16:45 38.277599 -105.248851 207 31892ft 367kts
02-May-18 16:46 38.187893 -105.310055 207 31902ft 368kts
02-May-18 16:47 38.097940 -105.371337 207 31938ft 367kts
02-May-18 16:48 38.007953 -105.431795 206 31954ft 367kts
02-May-18 16:49 37.917817 -105.492098 207 31948ft 367kts
02-May-18 16:50 37.828329 -105.552405 207 31965ft 367kts
02-May-18 16:51 37.738219 -105.613092 207 31935ft 367kts
02-May-18 16:52 37.647374 -105.659195 200 31942ft 367kts
02-May-18 16:53 37.553377 -105.703702 200 31941ft 367kts
02-May-18 16:54 37.457719 -105.748731 201 31936ft 367kts
02-May-18 16:55 37.362089 -105.793604 201 31932ft 367kts
02-May-18 16:56 37.266876 -105.838627 200 31931ft 367kts
02-May-18 16:57 37.171289 -105.882843 200 31927ft 367kts
02-May-18 16:58 37.075766 -105.927203 201 31924ft 362kts
02-May-18 16:59 36.982788 -105.970319 202 31921ft 354kts
02-May-18 17:00 36.894943 -106.012049 202 31936ft 351kts
02-May-18 17:01 36.804566 -106.054637 202 31971ft 351kts
02-May-18 17:02 36.713302 -106.097642 202 31969ft 351kts
02-May-18 17:03 36.621537 -106.139412 201 31303ft 356kts
02-May-18 17:04 36.527842 -106.179127 200 29967ft 342kts
02-May-18 17:05 36.438752 -106.213652 199 29325ft 338kts
02-May-18 17:06 36.352065 -106.255258 201 27482ft 337kts
02-May-18 17:07 36.265933 -106.294153 200 25212ft 325kts
02-May-18 17:08 36.181520 -106.331468 200 23603ft 323kts
02-May-18 17:09 36.097612 -106.368216 200 22287ft 320kts
02-May-18 17:10 36.014293 -106.406721 200 21028ft 319kts
02-May-18 17:11 35.931915 -106.442661 199 19829ft 317kts
02-May-18 17:12 35.849064 -106.477094 198 18578ft 315kts
02-May-18 17:13 35.766030 -106.510993 198 17267ft 314kts
02-May-18 17:14 35.687835 -106.541766 198 16030ft 313kts
02-May-18 17:15 35.607259 -106.574117 198 14767ft 309kts
02-May-18 17:16 35.528385 -106.614164 202 13496ft 306kts
02-May-18 17:17 35.451590 -106.655265 203 12400ft 307kts
02-May-18 17:18 35.374529 -106.697584 202 11077ft 303kts
02-May-18 17:19 35.298464 -106.716915 155 10178ft 268kts
02-May-18 17:20 35.247281 -106.648162 128 9514ft 281kts
02-May-18 17:21 35.191569 -106.593013 167 8095ft 254kts
02-May-18 17:22 35.133717 -106.576194 172 7401ft 209kts
02-May-18 17:23 35.079593 -106.568812 206 6735ft 149kts
02-May-18 17:24 35.048909 -106.598897 213 5581ft 129kts
02-May-18 17:25 35.031888 -106.618886 233 5317ft 34kts
02-May-18 17:26 35.030288 -106.622390 346 5317ft 0kts
02-May-18 17:27 35.031640 -106.621379 42 5317ft 16kts
02-May-18 17:28 35.035972 -106.616169 45 5320ft 19kts
02-May-18 17:29 35.039906 -106.613837 4 5320ft 13kts
02-May-18 17:30 35.045033 -106.613774 359 5320ft 22kts
02-May-18 17:31 35.047006 -106.613983 309 5321ft 0kts

Navigation Log

Ident Type
1. KDEN Airport
2. JEPPC Fix
3. SPAZZ Fix
4. FRNKE Fix
5. ZAPAA Fix
6. DATME Fix
7. EBIDE Fix
8. ESPAN Fix
9. DETEC Fix
10. SNDIA Fix
11. VLCNO Fix
12. ASIDE Fix
13. CRSTN Fix
14. KABQ Airport